createdAt,value
2019-02-19T00:00:26.052Z,65.40
2019-02-19T00:02:55.351Z,64.80
2019-02-19T00:05:23.142Z,64.50
2019-02-19T00:07:50.956Z,64.30
2019-02-19T00:10:18.684Z,63.90
2019-02-19T00:12:46.516Z,64.00
2019-02-19T00:15:14.255Z,63.30
2019-02-19T00:17:42.022Z,63.20
2019-02-19T00:20:10.072Z,63.40
2019-02-19T00:22:37.865Z,63.70
2019-02-19T00:25:05.599Z,64.90
2019-02-19T00:27:33.620Z,64.50
2019-02-19T00:30:01.344Z,64.40
2019-02-19T00:32:30.242Z,63.70
2019-02-19T00:34:57.973Z,63.90
2019-02-19T00:37:25.754Z,65.50
2019-02-19T00:39:53.541Z,65.10
2019-02-19T00:42:21.371Z,65.30
2019-02-19T00:44:49.524Z,65.80
2019-02-19T00:47:17.576Z,65.30
2019-02-19T00:49:45.278Z,65.10
2019-02-19T00:52:13.093Z,65.90
2019-02-19T00:54:40.790Z,65.90
2019-02-19T00:57:08.583Z,65.30
2019-02-19T00:59:36.329Z,64.40
2019-02-19T01:02:04.178Z,64.60
2019-02-19T01:04:32.122Z,65.80
2019-02-19T01:06:59.888Z,65.60
2019-02-19T01:09:27.827Z,65.90
2019-02-19T01:11:57.878Z,65.90
2019-02-19T01:14:25.701Z,65.50
2019-02-19T01:16:53.430Z,66.10
2019-02-19T01:19:21.287Z,66.50
2019-02-19T01:21:49.065Z,67.50
2019-02-19T01:24:16.854Z,66.40
2019-02-19T01:26:45.551Z,66.20
2019-02-19T01:29:13.324Z,65.70
2019-02-19T01:31:41.023Z,65.50
2019-02-19T01:34:08.842Z,65.40
2019-02-19T01:36:36.566Z,65.30
2019-02-19T01:39:05.010Z,65.00
2019-02-19T01:41:32.721Z,64.70
2019-02-19T01:44:00.544Z,65.00
2019-02-19T01:46:28.238Z,65.00
2019-02-19T01:48:56.131Z,65.60
2019-02-19T01:51:23.839Z,65.80
2019-02-19T01:53:51.733Z,66.80
2019-02-19T01:56:20.047Z,68.40
2019-02-19T01:58:47.878Z,68.30
2019-02-19T02:01:15.582Z,67.70
2019-02-19T02:03:43.277Z,67.10
2019-02-19T02:06:11.041Z,66.60
2019-02-19T02:08:38.810Z,67.50
2019-02-19T02:11:06.630Z,67.30
2019-02-19T02:13:34.318Z,67.20
2019-02-19T02:16:02.428Z,66.90
2019-02-19T02:18:30.144Z,68.10
2019-02-19T02:20:58.123Z,68.20
2019-02-19T02:23:25.861Z,67.70
2019-02-19T02:25:53.661Z,67.70
2019-02-19T02:28:21.454Z,67.70
2019-02-19T02:30:49.251Z,67.70
2019-02-19T02:33:17.001Z,67.60
2019-02-19T02:35:46.033Z,67.60
2019-02-19T02:38:13.819Z,68.70
2019-02-19T02:40:41.611Z,68.50
2019-02-19T02:43:09.441Z,68.20
2019-02-19T02:45:37.206Z,69.70
2019-02-19T02:48:04.917Z,68.50
2019-02-19T02:50:32.903Z,68.60
2019-02-19T02:53:00.662Z,68.50
2019-02-19T02:55:28.367Z,68.90
2019-02-19T02:57:56.087Z,68.60
2019-02-19T03:00:23.888Z,68.90
2019-02-19T03:02:51.791Z,69.30
2019-02-19T03:05:19.525Z,68.80
2019-02-19T03:07:50.311Z,68.60
2019-02-19T03:10:19.641Z,68.50
2019-02-19T03:12:47.446Z,68.50
2019-02-19T03:15:15.674Z,69.20
2019-02-19T03:17:43.559Z,69.00
2019-02-19T03:20:11.374Z,68.60
2019-02-19T03:22:39.132Z,69.00
2019-02-19T03:25:07.011Z,69.20
2019-02-19T03:27:34.848Z,69.10
2019-02-19T03:30:02.873Z,68.60
2019-02-19T03:32:32.348Z,68.70
2019-02-19T03:35:00.442Z,68.60
2019-02-19T03:37:28.373Z,68.80
2019-02-19T03:39:56.074Z,69.00
2019-02-19T03:42:23.924Z,69.80
2019-02-19T03:44:51.670Z,69.70
2019-02-19T03:47:19.421Z,70.20
2019-02-19T03:49:47.213Z,69.90
2019-02-19T03:52:15.016Z,69.40
2019-02-19T03:54:42.737Z,69.10
2019-02-19T03:57:10.778Z,69.10
2019-02-19T03:59:38.637Z,70.00
2019-02-19T04:02:06.344Z,69.50
2019-02-19T04:04:34.451Z,69.90
2019-02-19T04:07:02.182Z,69.70
2019-02-19T04:09:30.071Z,69.70
2019-02-19T04:11:57.805Z,69.80
2019-02-19T04:14:26.811Z,70.00
2019-02-19T04:16:54.872Z,70.20
2019-02-19T04:19:22.991Z,70.80
2019-02-19T04:21:50.802Z,71.20
2019-02-19T04:24:18.594Z,71.90
2019-02-19T04:26:46.286Z,71.70
2019-02-19T04:29:14.112Z,71.10
2019-02-19T04:31:42.143Z,71.80
2019-02-19T04:34:09.941Z,71.30
2019-02-19T04:36:37.651Z,71.10
2019-02-19T04:39:05.528Z,71.70
2019-02-19T04:41:33.372Z,71.70
2019-02-19T04:44:01.077Z,71.60
2019-02-19T04:46:31.736Z,71.70
2019-02-19T04:48:58.374Z,72.30
2019-02-19T04:51:26.247Z,72.90
2019-02-19T04:53:54.060Z,73.50
2019-02-19T04:56:21.867Z,73.50
2019-02-19T04:58:49.591Z,74.60
2019-02-19T05:01:17.481Z,74.70
2019-02-19T05:03:45.362Z,74.90
2019-02-19T05:06:13.151Z,74.30
2019-02-19T05:08:40.866Z,74.10
2019-02-19T05:11:08.746Z,73.20
2019-02-19T05:13:36.472Z,72.20
2019-02-19T05:16:04.299Z,71.10
2019-02-19T05:18:32.118Z,71.20
2019-02-19T05:20:59.932Z,71.20
2019-02-19T05:23:28.025Z,71.40
2019-02-19T05:25:55.735Z,71.60
2019-02-19T05:28:23.536Z,71.60
2019-02-19T05:30:51.158Z,71.70
2019-02-19T05:33:19.159Z,71.70
2019-02-19T05:35:46.913Z,71.60
2019-02-19T05:38:14.788Z,73.40
2019-02-19T05:40:42.631Z,75.10
2019-02-19T05:43:10.417Z,75.80
2019-02-19T05:45:38.150Z,76.50
2019-02-19T05:48:05.959Z,77.30
2019-02-19T05:50:35.314Z,77.20
2019-02-19T05:53:03.363Z,77.20
2019-02-19T05:55:31.330Z,77.50
2019-02-19T05:57:59.342Z,77.50
2019-02-19T06:00:27.186Z,77.40
2019-02-19T06:02:55.255Z,77.30
2019-02-19T06:05:23.221Z,76.90
2019-02-19T06:07:51.316Z,76.60
2019-02-19T06:10:19.208Z,76.10
2019-02-19T06:12:47.420Z,76.00
2019-02-19T06:15:17.278Z,76.00
2019-02-19T06:17:46.205Z,75.90
2019-02-19T06:20:18.319Z,75.70
2019-02-19T06:22:47.447Z,75.70
2019-02-19T06:25:16.367Z,75.50
2019-02-19T06:27:58.921Z,75.30
2019-02-19T06:30:50.707Z,75.10
2019-02-19T06:33:31.070Z,74.80
2019-02-19T06:40:23.515Z,74.00
2019-02-19T06:46:47.893Z,73.50
2019-02-19T06:49:15.636Z,73.10
2019-02-19T06:51:43.353Z,73.10
2019-02-19T06:54:11.118Z,73.10
2019-02-19T06:56:38.893Z,73.30
2019-02-19T06:59:06.645Z,73.20
2019-02-19T07:01:59.641Z,73.20
2019-02-19T07:04:32.750Z,73.10
2019-02-19T07:07:02.037Z,72.80
2019-02-19T07:09:29.798Z,72.90
2019-02-19T07:11:58.855Z,72.70
2019-02-19T07:14:26.765Z,72.60
2019-02-19T07:16:54.438Z,72.20
2019-02-19T07:19:22.250Z,72.30
2019-02-19T07:21:50.227Z,71.70
2019-02-19T07:24:17.952Z,72.00
2019-02-19T07:26:45.642Z,72.20
2019-02-19T07:29:15.069Z,72.30
2019-02-19T07:31:42.989Z,72.30
2019-02-19T07:34:10.654Z,72.20
2019-02-19T07:36:38.413Z,72.10
2019-02-19T07:39:06.261Z,71.80
2019-02-19T07:41:34.360Z,71.70
2019-02-19T07:44:02.170Z,71.50
2019-02-19T07:46:30.187Z,71.40
2019-02-19T07:48:57.973Z,70.90
2019-02-19T07:51:25.812Z,71.20
2019-02-19T07:53:53.503Z,71.10
2019-02-19T07:56:21.242Z,71.10
2019-02-19T07:58:49.040Z,70.40
2019-02-19T08:01:16.876Z,70.20
2019-02-19T08:03:44.680Z,70.20
2019-02-19T08:06:12.534Z,70.20
2019-02-19T08:08:41.174Z,70.50
2019-02-19T08:11:09.004Z,70.40
2019-02-19T08:13:36.721Z,70.40
2019-02-19T08:16:04.476Z,70.40
2019-02-19T08:18:32.147Z,70.30
2019-02-19T08:20:59.991Z,70.20
2019-02-19T08:23:29.892Z,70.20
2019-02-19T08:25:57.764Z,70.30
2019-02-19T08:28:25.625Z,70.00
2019-02-19T08:30:53.370Z,70.20
2019-02-19T08:33:21.156Z,69.60
2019-02-19T08:35:48.947Z,69.90
2019-02-19T08:38:16.681Z,69.60
2019-02-19T08:40:44.355Z,69.20
2019-02-19T08:43:12.195Z,69.50
2019-02-19T08:45:40.001Z,68.00
2019-02-19T08:48:07.866Z,68.00
2019-02-19T08:50:35.559Z,68.40
2019-02-19T08:53:03.403Z,67.60
2019-02-19T08:55:31.094Z,67.40
2019-02-19T08:57:58.910Z,66.70
2019-02-19T09:00:26.595Z,67.10
2019-02-19T09:02:54.693Z,66.00
2019-02-19T09:05:22.586Z,65.80
2019-02-19T09:07:50.427Z,64.80
2019-02-19T09:10:18.219Z,65.70
2019-02-19T09:12:46.065Z,64.00
2019-02-19T09:15:13.957Z,62.60
2019-02-19T09:17:41.821Z,62.10
2019-02-19T09:20:09.722Z,62.20
2019-02-19T09:22:37.462Z,62.60
2019-02-19T09:25:05.239Z,62.70
2019-02-19T09:27:33.963Z,61.30
2019-02-19T09:30:01.734Z,60.90
2019-02-19T09:32:31.117Z,60.60
2019-02-19T09:34:58.848Z,59.10
2019-02-19T09:37:26.593Z,59.40
2019-02-19T09:39:54.346Z,58.40
2019-02-19T09:42:22.037Z,59.30
2019-02-19T09:44:49.796Z,58.50
2019-02-19T09:47:17.617Z,57.20
2019-02-19T09:49:45.576Z,58.40
2019-02-19T09:52:13.442Z,57.30
2019-02-19T09:54:41.210Z,57.00
2019-02-19T09:57:08.810Z,56.50
2019-02-19T09:59:36.446Z,57.40
2019-02-19T10:02:04.114Z,57.60
2019-02-19T10:04:32.002Z,58.20
2019-02-19T10:06:59.700Z,58.00
2019-02-19T10:09:27.435Z,58.20
2019-02-19T10:11:55.219Z,59.20
2019-02-19T10:14:23.010Z,59.30
2019-02-19T10:16:50.676Z,59.20
2019-02-19T10:19:18.506Z,59.20
2019-02-19T10:21:46.292Z,59.80
2019-02-19T10:24:13.966Z,60.50
2019-02-19T10:26:41.650Z,61.50
2019-02-19T10:29:09.539Z,61.70
2019-02-19T10:31:37.400Z,62.50
2019-02-19T10:34:05.186Z,62.80
2019-02-19T10:36:32.948Z,62.50
2019-02-19T10:39:00.780Z,62.90
2019-02-19T10:41:28.550Z,62.30
2019-02-19T10:43:56.334Z,62.50
2019-02-19T10:46:24.190Z,63.40
2019-02-19T10:48:52.061Z,63.10
2019-02-19T10:51:19.927Z,61.70
2019-02-19T10:53:47.709Z,62.50
2019-02-19T10:56:15.483Z,62.20
2019-02-19T10:58:43.170Z,62.60
2019-02-19T11:01:11.134Z,62.30
2019-02-19T11:03:39.070Z,62.30
2019-02-19T11:06:06.828Z,62.80
2019-02-19T11:08:34.744Z,64.30
2019-02-19T11:11:02.494Z,63.40
2019-02-19T11:13:30.244Z,62.90
2019-02-19T11:15:58.103Z,62.50
2019-02-19T11:18:28.508Z,61.90
2019-02-19T11:20:55.338Z,61.20
2019-02-19T11:23:23.238Z,62.10
2019-02-19T11:25:50.938Z,62.00
2019-02-19T11:28:18.739Z,62.40
2019-02-19T11:30:46.637Z,62.10
2019-02-19T11:33:14.439Z,62.40
2019-02-19T11:35:42.205Z,63.40
2019-02-19T11:38:10.160Z,63.80
2019-02-19T11:40:37.931Z,63.90
2019-02-19T11:43:05.833Z,65.20
2019-02-19T11:45:33.582Z,66.40
2019-02-19T11:48:01.541Z,65.80
2019-02-19T11:50:29.348Z,65.80
2019-02-19T11:52:57.210Z,64.60
2019-02-19T11:55:24.994Z,65.80
2019-02-19T11:57:52.743Z,65.10
2019-02-19T12:00:24.526Z,64.50
2019-02-19T12:02:53.894Z,64.50
2019-02-19T12:05:21.611Z,64.70
2019-02-19T12:07:49.342Z,65.50
2019-02-19T12:10:17.096Z,65.40
2019-02-19T12:12:44.888Z,65.40
2019-02-19T12:15:12.914Z,66.70
2019-02-19T12:17:40.703Z,67.50
2019-02-19T12:20:08.811Z,67.80
2019-02-19T12:22:38.018Z,68.10
2019-02-19T12:25:06.067Z,68.20
2019-02-19T12:27:34.762Z,68.30
2019-02-19T12:30:02.947Z,68.80
2019-02-19T12:32:32.309Z,69.00
2019-02-19T12:35:00.037Z,69.30
2019-02-19T12:37:28.332Z,69.10
2019-02-19T12:39:56.098Z,68.80
2019-02-19T12:42:23.797Z,68.90
2019-02-19T12:44:51.574Z,68.60
2019-02-19T12:47:19.263Z,68.80
2019-02-19T12:49:47.216Z,68.60
2019-02-19T12:52:14.873Z,68.50
2019-02-19T12:54:42.739Z,69.20
2019-02-19T12:57:10.601Z,69.70
2019-02-19T12:59:38.294Z,69.50
2019-02-19T13:02:06.323Z,70.10
2019-02-19T13:04:34.115Z,70.30
2019-02-19T13:07:01.943Z,70.70
2019-02-19T13:09:29.655Z,71.30
2019-02-19T13:11:57.443Z,71.60
2019-02-19T13:14:25.307Z,72.50
2019-02-19T13:16:53.182Z,72.70
2019-02-19T13:19:20.962Z,73.20
2019-02-19T13:21:48.730Z,73.70
2019-02-19T13:24:16.532Z,73.80
2019-02-19T13:26:44.430Z,74.30
2019-02-19T13:29:12.215Z,74.40
2019-02-19T13:31:40.087Z,74.70
2019-02-19T13:34:07.876Z,74.70
2019-02-19T13:36:35.762Z,75.20
2019-02-19T13:39:04.709Z,75.00
2019-02-19T13:41:32.798Z,75.60
2019-02-19T13:44:00.745Z,75.20
2019-02-19T13:46:28.422Z,75.10
2019-02-19T13:48:56.170Z,75.20
2019-02-19T13:51:24.013Z,76.20
2019-02-19T13:53:59.512Z,76.40
2019-02-19T13:56:28.792Z,76.50
2019-02-19T13:58:56.578Z,75.60
2019-02-19T14:01:24.269Z,74.90
2019-02-19T14:03:52.156Z,75.00
2019-02-19T14:06:19.834Z,74.90
2019-02-19T14:08:47.594Z,76.30
2019-02-19T14:11:16.290Z,75.80
2019-02-19T14:13:51.664Z,75.10
2019-02-19T14:16:26.002Z,74.60
2019-02-19T14:19:02.541Z,74.90
2019-02-19T14:21:49.230Z,74.60
2019-02-19T14:24:41.153Z,75.10
2019-02-19T14:27:21.286Z,74.90
2019-02-19T14:30:09.174Z,75.20
2019-02-19T14:33:10.357Z,75.10
2019-02-19T14:36:15.691Z,75.40
2019-02-19T14:39:19.735Z,75.30
2019-02-19T14:42:07.558Z,74.80
2019-02-19T14:44:55.128Z,73.50
2019-02-19T14:47:35.521Z,73.60
2019-02-19T14:50:30.427Z,73.50
2019-02-19T14:53:18.196Z,73.40
2019-02-19T14:56:05.871Z,72.50
2019-02-19T14:58:59.964Z,73.00
2019-02-19T15:02:01.111Z,73.30
2019-02-19T15:04:56.446Z,73.20
2019-02-19T15:07:45.254Z,73.80
2019-02-19T15:10:32.601Z,73.90
2019-02-19T15:13:09.303Z,73.90
2019-02-19T15:15:58.283Z,74.90
2019-02-19T15:18:52.936Z,74.60
2019-02-19T15:21:41.905Z,74.30
2019-02-19T15:24:42.996Z,75.00
2019-02-19T15:27:44.046Z,74.60
2019-02-19T15:30:27.440Z,74.90
2019-02-19T15:33:06.794Z,75.00
2019-02-19T15:36:01.708Z,75.30
2019-02-19T15:38:50.516Z,75.30
2019-02-19T15:41:51.626Z,76.50
2019-02-19T15:44:40.422Z,75.80
2019-02-19T15:47:28.981Z,76.00
2019-02-19T15:50:09.313Z,76.20
2019-02-19T15:53:01.436Z,76.30
2019-02-19T15:56:17.201Z,76.60
2019-02-19T15:59:08.275Z,76.90
2019-02-19T16:02:00.038Z,77.30
2019-02-19T16:04:57.748Z,77.30
2019-02-19T16:07:36.039Z,77.50
2019-02-19T16:10:28.237Z,78.10
2019-02-19T16:13:15.314Z,78.10
2019-02-19T16:16:04.208Z,79.80
2019-02-19T16:18:57.962Z,80.20
2019-02-19T16:21:55.860Z,80.50
2019-02-19T16:24:32.803Z,80.70
2019-02-19T16:27:20.676Z,80.60
2019-02-19T16:30:05.854Z,80.70
2019-02-19T16:32:41.583Z,80.40
2019-02-19T16:35:36.564Z,80.40
2019-02-19T16:38:11.583Z,80.50
2019-02-19T16:40:58.488Z,81.00
2019-02-19T16:43:47.391Z,81.10
2019-02-19T16:46:45.304Z,81.30
2019-02-19T16:49:40.136Z,81.70
2019-02-19T16:52:19.539Z,81.70
2019-02-19T16:54:56.158Z,81.80
2019-02-19T16:57:31.117Z,81.40
2019-02-19T17:00:23.156Z,81.70
2019-02-19T17:03:24.270Z,81.50
2019-02-19T17:06:09.144Z,81.30
2019-02-19T17:08:56.528Z,81.80
2019-02-19T17:11:48.464Z,81.20
2019-02-19T17:14:33.156Z,81.20
2019-02-19T17:17:10.575Z,81.40
2019-02-19T17:19:56.217Z,81.50
2019-02-19T17:22:40.091Z,81.70
2019-02-19T17:25:43.809Z,81.50
2019-02-19T17:28:38.086Z,82.00
2019-02-19T17:31:29.594Z,81.90
2019-02-19T17:34:24.959Z,81.80
2019-02-19T17:37:06.414Z,81.90
2019-02-19T17:39:55.254Z,82.00
2019-02-19T17:42:42.564Z,82.00
2019-02-19T17:45:34.066Z,81.40
2019-02-19T17:48:20.432Z,81.80
2019-02-19T17:51:08.202Z,82.30
2019-02-19T17:54:02.873Z,81.60
2019-02-19T17:56:51.760Z,81.90
2019-02-19T17:59:33.094Z,81.90
2019-02-19T18:02:09.996Z,81.90
2019-02-19T18:04:51.483Z,82.50
2019-02-19T18:07:46.568Z,81.70
2019-02-19T18:10:27.822Z,82.10
2019-02-19T18:13:15.644Z,82.20
2019-02-19T18:16:07.498Z,82.60
2019-02-19T18:18:56.423Z,82.40
2019-02-19T18:21:24.251Z,82.80
2019-02-19T18:23:52.038Z,82.40
2019-02-19T18:26:19.794Z,82.50
2019-02-19T18:28:47.604Z,83.00
2019-02-19T18:31:15.445Z,83.30
2019-02-19T18:33:43.363Z,83.80
2019-02-19T18:36:11.742Z,83.80
2019-02-19T18:38:39.812Z,83.30
2019-02-19T18:41:07.697Z,82.90
2019-02-19T18:43:35.524Z,82.80
2019-02-19T18:46:06.290Z,82.70
2019-02-19T18:48:34.138Z,82.50
2019-02-19T18:51:01.969Z,82.50
2019-02-19T18:53:29.778Z,82.80
2019-02-19T18:55:57.636Z,82.90
2019-02-19T18:58:25.539Z,82.50
2019-02-19T19:00:53.251Z,82.30
2019-02-19T19:03:21.006Z,81.90
2019-02-19T19:05:48.961Z,81.60
2019-02-19T19:08:16.797Z,81.30
2019-02-19T19:10:44.580Z,80.90
2019-02-19T19:13:12.334Z,80.60
2019-02-19T19:15:40.262Z,80.60
2019-02-19T19:18:08.071Z,80.60
2019-02-19T19:20:35.982Z,80.00
2019-02-19T19:23:03.690Z,79.10
2019-02-19T19:25:31.463Z,78.20
2019-02-19T19:27:59.135Z,77.90
2019-02-19T19:30:26.887Z,77.50
2019-02-19T19:32:54.612Z,77.80
2019-02-19T19:35:22.446Z,77.60
2019-02-19T19:37:50.181Z,77.30
2019-02-19T19:40:17.964Z,77.10
2019-02-19T19:42:45.709Z,77.20
2019-02-19T19:45:13.512Z,76.80
2019-02-19T19:47:41.252Z,76.80
2019-02-19T19:50:09.043Z,77.20
2019-02-19T19:52:37.390Z,77.30
2019-02-19T19:55:05.514Z,77.60
2019-02-19T19:57:35.052Z,77.80
2019-02-19T20:00:52.821Z,77.20
2019-02-19T20:03:54.497Z,77.60
2019-02-19T20:06:22.417Z,77.70
2019-02-19T20:08:50.311Z,78.70
2019-02-19T20:11:18.174Z,78.30
2019-02-19T20:13:46.011Z,78.50
2019-02-19T20:16:13.891Z,79.10
2019-02-19T20:18:41.852Z,78.70
2019-02-19T20:21:09.881Z,77.90
2019-02-19T20:23:38.004Z,77.50
2019-02-19T20:26:05.962Z,77.80
2019-02-19T20:28:33.763Z,78.00
2019-02-19T20:31:01.596Z,78.00
2019-02-19T20:33:29.359Z,77.60
2019-02-19T20:35:57.124Z,78.10
2019-02-19T20:38:24.994Z,78.40
2019-02-19T20:40:52.783Z,79.00
2019-02-19T20:43:20.571Z,78.70
2019-02-19T20:45:48.364Z,78.70
2019-02-19T20:48:16.226Z,80.50
2019-02-19T20:50:44.051Z,79.60
2019-02-19T20:53:11.973Z,79.10
2019-02-19T20:55:39.912Z,79.00
2019-02-19T20:58:07.738Z,79.50
2019-02-19T21:00:35.611Z,80.70
2019-02-19T21:03:03.473Z,80.90
2019-02-19T21:05:31.298Z,80.80
2019-02-19T21:07:58.919Z,80.70
2019-02-19T21:10:26.602Z,81.20
2019-02-19T21:12:54.434Z,81.00
2019-02-19T21:15:22.266Z,80.40
2019-02-19T21:17:50.013Z,81.50
2019-02-19T21:20:17.965Z,81.70
2019-02-19T21:22:45.725Z,82.30
2019-02-19T21:25:13.650Z,83.20
2019-02-19T21:27:41.404Z,84.30
2019-02-19T21:30:09.954Z,84.90
2019-02-19T21:32:39.388Z,86.10
2019-02-19T21:35:07.353Z,85.60
2019-02-19T21:37:35.590Z,86.30
2019-02-19T21:40:03.983Z,87.10
2019-02-19T21:42:33.302Z,86.00
2019-02-19T21:45:01.161Z,85.60
2019-02-19T21:47:30.573Z,84.70
2019-02-19T21:49:58.389Z,84.40
2019-02-19T21:52:26.036Z,83.90
2019-02-19T21:54:53.904Z,83.50
2019-02-19T21:57:21.903Z,83.30
2019-02-19T21:59:49.711Z,83.40
2019-02-19T22:02:17.602Z,83.80
2019-02-19T22:04:45.339Z,83.50
2019-02-19T22:07:13.142Z,83.70
2019-02-19T22:09:40.969Z,83.80
2019-02-19T22:12:08.691Z,83.40
2019-02-19T22:14:36.517Z,84.40
2019-02-19T22:17:04.279Z,84.30
2019-02-19T22:19:32.252Z,83.80
2019-02-19T22:22:10.686Z,83.20
2019-02-19T22:24:39.581Z,83.70
2019-02-19T22:27:07.602Z,84.70
2019-02-19T22:29:35.412Z,85.00
2019-02-19T22:32:04.385Z,84.70
2019-02-19T22:34:32.247Z,84.70
2019-02-19T22:37:00.186Z,84.10
2019-02-19T22:39:28.103Z,83.90
2019-02-19T22:41:55.869Z,83.60
2019-02-19T22:44:23.679Z,83.70
2019-02-19T22:46:51.625Z,84.50
2019-02-19T22:49:19.322Z,84.90
2019-02-19T22:51:47.140Z,85.10
2019-02-19T22:54:43.407Z,86.30
2019-02-19T22:57:12.774Z,86.40
2019-02-19T22:59:40.495Z,87.00
2019-02-19T23:02:20.795Z,88.00
2019-02-19T23:04:48.649Z,88.90
2019-02-19T23:07:16.431Z,90.00
2019-02-19T23:09:44.294Z,90.50
2019-02-19T23:12:12.221Z,90.30
2019-02-19T23:14:40.028Z,91.10
2019-02-19T23:17:07.853Z,91.10
2019-02-19T23:19:35.637Z,90.80
2019-02-19T23:22:03.428Z,90.50
2019-02-19T23:24:31.280Z,90.20
2019-02-19T23:26:58.986Z,89.80
2019-02-19T23:29:26.942Z,88.40
2019-02-19T23:31:54.803Z,88.20
2019-02-19T23:34:22.545Z,87.30
2019-02-19T23:37:03.350Z,87.50
2019-02-19T23:39:31.822Z,87.10
2019-02-19T23:41:59.518Z,87.30
2019-02-19T23:44:27.385Z,88.00
2019-02-19T23:46:55.055Z,88.00
2019-02-19T23:49:22.901Z,89.90
2019-02-19T23:51:50.676Z,90.40
2019-02-19T23:54:18.522Z,89.70
2019-02-19T23:56:46.312Z,89.80
2019-02-19T23:59:14.161Z,89.90
